Date,TemperatureHighF,TemperatureAvgF,TemperatureLowF,DewpointHighF,DewpointAvgF,DewpointLowF,HumidityHigh,HumidityAvg,HumidityLow,PressureMaxIn,PressureMinIn,WindSpeedMaxMPH,WindSpeedAvgMPH,GustSpeedMaxMPH,PrecipitationSumIn
2013-1-1,30.0,27.1,22.5,27.1,24.5,19.5,92,90,87,27.21,27.13,12,5,24,0.00
2013-1-2,31.5,20.6,15.2,20.7,13.6,10.1,88,74,53,27.36,27.19,11,4,16,0.00
2013-1-3,37.3,21.8,8.9,23.0,13.3,4.5,85,71,48,27.37,27.29,14,5,26,0.00
2013-1-4,27.1,23.5,21.3,17.9,16.9,15.3,82,76,67,27.39,27.32,23,10,31,0.00
2013-1-5,44.1,28.6,21.6,22.4,18.8,16.2,81,68,42,27.53,27.34,13,5,27,0.00
2013-1-6,35.3,31.4,29.0,28.7,24.2,19.8,92,75,64,27.38,27.22,12,6,21,0.01
2013-1-7,31.9,24.8,15.9,26.5,20.7,12.2,92,85,62,27.61,27.38,12,3,22,0.00
2013-1-8,51.7,30.6,14.2,26.2,19.3,9.7,85,66,35,27.56,27.46,14,2,18,0.00
2013-1-9,47.0,35.8,22.0,40.9,28.5,-64.0,96,81,1,27.65,27.46,16,6,27,0.02
2013-1-10,58.9,39.1,27.6,30.0,25.1,18.7,90,60,28,27.77,27.56,10,2,23,0.00
2013-1-11,51.8,41.5,35.6,51.3,35.9,25.0,98,81,60,27.56,27.28,17,6,26,0.25
2013-1-12,61.4,54.6,50.0,53.7,51.0,46.9,98,88,70,27.39,27.29,9,4,20,0.00
2013-1-13,63.4,57.3,47.8,52.5,47.7,-2.9,95,73,7,27.31,27.20,12,5,21,0.08
2013-1-14,54.2,37.1,29.7,53.4,34.6,-27.4,97,93,5,27.52,27.22,10,4,28,0.13
2013-1-15,33.6,31.0,29.4,30.6,29.0,27.7,94,92,85,27.50,27.27,8,2,15,0.38
2013-1-16,35.1,32.1,29.2,34.2,30.9,27.2,97,95,92,27.24,27.08,10,4,21,0.11
2013-1-17,31.3,28.6,26.2,28.6,24.7,21.8,94,85,80,27.34,27.23,14,4,22,0.00
2013-1-18,36.2,25.3,15.9,21.4,9.0,-0.7,82,53,27,27.60,27.32,20,8,29,0.00
2013-1-19,52.9,40.6,31.2,16.2,10.2,2.2,34,28,21,27.48,27.13,18,10,35,0.00
2013-1-20,41.3,34.2,21.1,26.2,13.5,-7.8,63,45,13,27.26,27.06,19,10,37,0.00
2013-1-21,30.2,19.9,6.4,17.6,8.0,-34.0,83,61,11,27.24,27.04,15,7,27,0.00
2013-1-22,11.2,5.0,0.2,-0.7,-5.9,-8.3,74,60,45,27.33,27.14,16,8,27,0.00
2013-1-23,13.5,7.0,-0.2,6.4,-3.0,-7.1,79,64,45,27.36,27.15,14,6,22,0.01
2013-1-24,17.9,9.7,1.8,6.8,1.0,-6.6,79,68,45,27.60,27.15,17,4,22,0.03
2013-1-25,18.9,11.9,1.4,15.8,4.4,-6.6,88,72,57,27.56,27.15,15,3,19,0.01
2013-1-26,24.9,19.6,16.0,17.9,14.4,8.6,87,80,69,27.55,27.21,15,6,18,0.01
2013-1-27,41.2,25.0,11.4,16.9,12.9,6.7,81,61,33,27.64,27.51,6,1,12,0.00
2013-1-28,48.1,41.3,27.5,47.6,37.1,-33.3,98,90,5,27.50,27.29,18,8,32,0.41
2013-1-29,65.5,54.4,47.9,54.6,48.8,44.8,99,83,55,27.35,27.15,12,6,25,0.02
2013-1-30,67.7,54.7,41.7,54.0,49.5,40.9,98,84,57,27.14,27.01,27,10,41,0.59
2013-1-31,40.4,22.3,16.7,39.6,18.0,10.1,97,83,73,27.03,27.01,21,11,36,0.09
2013-2-1,18.4,10.2,3.4,14.9,3.9,-2.7,86,75,64,27.42,27.01,19,8,27,0.02
2013-2-2,22.7,14.9,2.3,17.8,8.0,-3.2,88,75,49,27.40,27.11,13,6,20,0.01
2013-2-3,27.6,20.5,13.0,20.5,15.7,7.5,89,82,67,27.15,27.01,15,6,27,0.06
2013-2-4,29.9,21.9,12.8,28.6,15.9,6.9,95,78,52,27.19,27.03,16,8,25,0.08
2013-2-5,33.7,30.1,27.6,31.9,28.3,25.6,96,93,87,27.12,27.02,16,5,25,0.10
2013-2-6,28.5,24.8,14.0,26.7,21.7,0.0,94,88,84,27.48,27.13,17,4,22,0.01
2013-2-7,36.4,26.3,13.0,31.7,22.1,8.8,90,84,76,27.49,27.25,19,6,23,0.00
2013-2-8,40.7,28.3,19.5,35.9,25.6,16.3,96,89,81,27.27,27.03,20,9,34,0.08
2013-2-9,35.6,21.4,8.8,28.7,15.7,3.9,87,79,62,27.52,27.27,15,5,26,0.00
2013-2-10,49.9,29.6,6.9,40.0,15.2,-55.9,90,57,3,27.51,27.24,15,4,25,0.02
2013-2-11,57.7,44.2,32.7,47.4,32.9,17.7,98,70,27,27.23,27.01,20,8,37,0.05
2013-2-12,48.9,36.2,27.7,24.2,20.8,17.6,70,55,32,27.23,27.08,18,8,29,0.00
2013-2-13,39.9,31.4,23.8,28.7,23.0,17.0,93,73,41,27.14,27.01,15,3,21,0.10
2013-2-14,38.8,31.9,24.4,26.7,22.9,-28.7,91,71,5,27.18,27.06,12,5,20,0.00
2013-2-15,42.2,33.5,27.3,30.7,27.3,22.8,93,79,49,27.23,27.15,13,5,20,0.00
2013-2-16,27.3,21.8,13.5,22.8,14.2,6.7,87,73,54,27.19,27.05,10,4,14,0.02
2013-2-17,18.6,13.5,9.0,11.2,6.4,-0.4,82,73,59,27.36,27.05,15,7,26,0.03
2013-2-18,43.6,25.8,4.2,24.0,9.7,-18.2,75,53,8,27.44,27.20,12,4,18,0.00
2013-2-19,42.0,32.8,19.4,36.5,26.5,14.8,96,80,45,27.20,27.01,27,9,34,0.06
2013-2-20,21.7,16.1,11.9,13.7,8.7,2.4,82,72,63,27.32,27.10,22,11,39,0.00
2013-2-21,28.4,17.3,12.7,15.9,9.8,5.8,82,72,58,27.46,27.28,17,6,23,0.00
2013-2-22,26.7,23.9,19.4,24.4,18.6,-9.5,92,81,24,27.42,27.24,25,8,30,0.00
2013-2-23,53.6,37.0,26.2,44.6,31.8,24.2,94,83,51,27.24,27.06,9,2,14,0.00
2013-2-24,33.6,26.4,18.8,31.0,20.8,13.7,90,79,65,27.30,27.06,18,6,23,0.01
2013-2-25,44.4,30.5,19.5,23.4,16.9,-33.8,85,60,4,27.37,27.28,13,4,23,0.00
2013-2-26,32.1,29.4,27.7,30.9,22.9,15.2,96,78,56,27.29,27.02,25,11,35,0.26
2013-2-27,37.5,33.2,28.1,34.3,31.7,26.1,96,94,88,0.00,40.00,17,6,23,0.12
2013-2-28,31.9,28.1,26.8,27.0,24.1,-26.4,94,86,7,0.00,40.00,15,7,21,0.07
2013-3-1,30.5,25.3,20.8,25.0,21.7,17.0,92,86,77,27.12,27.01,9,5,16,0.02
2013-3-2,27.8,21.5,18.3,18.3,15.8,13.7,86,79,64,27.10,27.04,14,5,19,0.00
2013-3-3,28.1,20.5,16.4,16.8,14.4,11.9,86,77,59,27.14,27.05,13,6,18,0.01
2013-3-4,35.6,22.9,14.9,17.4,12.2,8.7,83,64,40,27.24,27.14,13,6,22,0.00
2013-3-5,52.2,32.9,15.1,24.8,15.6,9.2,89,53,19,27.25,27.01,24,4,34,0.00
2013-3-6,37.6,30.6,25.8,34.1,26.9,22.7,90,86,80,27.28,27.01,14,4,27,0.31
2013-3-7,35.8,29.9,27.1,29.0,25.8,23.9,90,85,72,27.42,27.28,15,5,19,0.02
2013-3-8,31.3,26.3,19.6,23.4,20.9,16.6,89,80,68,27.57,27.41,11,5,21,0.00
2013-3-9,54.8,35.3,10.0,33.0,16.6,5.3,89,53,20,27.55,27.45,8,2,13,0.00
2013-3-10,63.0,48.5,35.9,28.4,23.7,15.5,53,38,25,27.45,27.33,18,5,24,0.00
2013-3-11,51.4,48.0,44.8,46.0,32.3,24.6,94,57,36,27.33,27.07,20,10,30,0.01
2013-3-12,47.5,35.7,30.1,45.9,32.8,0.0,96,90,75,27.22,27.04,16,7,24,0.42
2013-3-13,34.6,27.8,21.3,26.0,21.8,14.3,91,78,56,27.25,27.13,24,7,28,0.06
2013-3-14,35.0,24.7,18.0,16.6,14.3,12.1,85,66,41,27.34,27.26,19,8,27,0.00
2013-3-15,46.8,35.9,24.1,30.3,21.8,11.8,66,57,47,27.29,27.06,21,8,27,0.00
2013-3-16,56.4,42.0,33.6,47.6,38.4,31.4,95,87,69,27.14,26.89,16,5,23,0.01
2013-3-17,37.1,30.9,26.6,34.4,26.8,-42.3,95,87,3,27.36,27.14,13,4,20,0.00
2013-3-18,30.4,27.1,25.2,27.6,23.2,-9.8,94,86,20,27.34,27.02,30,16,40,0.15
2013-3-19,41.3,34.5,27.3,34.2,20.4,3.6,96,62,21,27.16,26.97,25,10,37,0.06
2013-3-20,38.2,28.7,21.9,23.2,12.7,8.7,87,53,32,27.16,26.99,18,7,31,0.05
2013-3-21,23.8,18.8,13.5,17.5,9.9,4.6,85,69,50,27.07,26.98,13,6,23,0.02
2013-3-22,37.1,24.8,17.7,18.2,12.6,-30.7,77,61,8,27.20,27.05,15,6,25,0.00
2013-3-23,46.4,32.7,19.7,19.1,16.1,13.0,76,53,32,27.22,27.16,16,4,17,0.00
2013-3-24,31.6,26.9,23.3,23.7,19.0,14.5,87,73,51,27.18,26.76,15,6,26,0.01
2013-3-25,37.0,28.9,25.5,27.3,22.2,-43.6,90,80,3,26.93,26.71,16,6,24,0.05
2013-3-26,37.9,30.7,26.7,28.0,25.0,22.1,92,80,57,27.26,26.94,11,5,19,0.03
2013-3-27,39.1,30.5,26.5,26.8,23.5,20.1,90,76,53,27.34,27.24,13,6,19,0.06
2013-3-28,38.0,31.8,26.9,32.7,24.2,-37.0,91,77,3,27.45,27.31,14,6,19,0.03
2013-3-29,48.6,38.2,31.7,27.0,23.4,20.3,73,57,35,27.46,27.38,12,4,16,0.00
2013-3-30,56.1,38.9,22.0,25.9,18.4,-48.2,83,49,1,27.45,27.30,5,1,11,0.00
2013-3-31,44.4,40.7,35.7,43.1,33.3,0.0,96,78,43,27.30,27.01,11,4,19,0.22
2013-4-1,43.0,35.6,26.8,40.5,31.6,14.2,96,86,58,27.20,27.00,16,7,25,0.11
2013-4-2,38.9,28.9,20.0,18.6,11.1,5.7,66,49,25,27.36,27.19,14,6,22,0.00
2013-4-3,40.9,29.1,19.7,14.8,9.8,4.4,66,46,24,27.55,27.36,23,6,27,0.00
2013-4-4,46.0,30.5,13.8,19.8,10.7,2.1,77,47,24,27.54,27.23,17,5,22,0.00
2013-4-5,57.1,44.4,31.9,29.7,23.1,15.8,79,45,27,27.34,27.16,15,5,25,0.00
2013-4-6,57.0,40.2,20.0,21.6,14.2,7.8,82,40,17,27.47,27.34,14,5,21,0.00
2013-4-7,69.0,55.2,44.4,45.3,31.7,17.1,73,42,31,27.35,27.23,18,7,31,0.00
2013-4-8,71.7,58.9,44.2,43.7,40.7,-26.8,83,54,2,27.35,27.25,12,4,23,0.00
2013-4-9,78.4,67.2,56.9,53.6,48.0,3.1,70,52,8,27.41,27.27,13,6,21,0.00
2013-4-10,79.8,70.9,58.4,55.1,49.5,5.3,77,49,10,27.31,27.18,18,8,34,0.00
2013-4-11,79.1,64.5,47.1,53.8,49.3,-19.5,92,63,2,27.24,26.99,11,4,20,0.00
2013-4-12,63.5,56.2,41.4,60.3,47.1,0.8,97,76,9,27.10,26.91,20,8,26,0.60
2013-4-13,59.6,45.7,34.6,34.2,28.6,23.1,76,54,26,27.24,27.09,15,8,29,0.00
2013-4-14,66.3,50.2,30.1,36.5,30.1,22.8,83,50,27,27.38,27.24,9,3,16,0.00
2013-4-15,57.6,52.8,49.2,46.8,42.4,35.3,84,68,52,27.45,27.33,19,10,29,0.00
2013-4-16,78.4,62.9,51.7,56.2,49.9,46.8,96,66,36,27.50,27.38,14,7,36,0.52
2013-4-17,75.3,60.4,53.3,63.1,55.6,52.4,97,86,52,27.51,27.43,11,3,19,0.00
2013-4-18,76.5,64.0,55.3,58.7,54.2,50.7,94,73,47,27.46,27.21,17,9,30,0.00
2013-4-19,70.3,55.5,39.7,62.3,48.0,32.4,96,77,54,27.20,26.90,25,10,40,0.28
2013-4-20,48.0,37.6,29.3,31.7,22.3,-26.8,85,57,6,27.56,27.11,16,8,27,0.00
2013-4-21,55.6,39.0,21.1,25.1,17.8,-33.4,85,48,2,27.73,27.56,13,3,18,0.00
2013-4-22,54.1,43.4,31.9,28.8,22.1,16.0,68,45,24,27.69,27.55,21,8,27,0.00
2013-4-23,70.7,49.8,30.9,37.4,32.3,-28.7,89,57,3,27.55,27.31,11,3,18,0.00
2013-4-24,74.4,52.7,35.6,57.6,43.7,34.0,95,74,39,27.36,27.07,18,6,32,0.11
2013-4-25,57.3,41.8,30.2,34.2,28.8,21.7,94,66,26,27.55,27.36,17,5,23,0.00
2013-4-26,63.7,47.1,29.0,36.2,28.1,21.5,91,54,21,27.67,27.55,9,2,12,0.00
2013-4-27,67.2,51.8,30.8,37.3,31.3,24.8,79,49,27,27.63,27.48,17,5,23,0.00
2013-4-28,54.0,49.6,46.6,49.3,43.9,37.1,95,82,53,27.48,27.29,19,9,29,0.13
2013-4-29,59.0,51.3,45.8,53.0,48.0,-19.2,96,90,5,27.33,27.26,13,6,24,0.03
2013-4-30,63.1,52.7,47.2,55.2,48.7,46.1,97,87,62,27.50,27.33,19,8,24,0.00
2013-5-1,68.3,55.0,46.9,48.5,40.7,28.3,94,64,24,27.62,27.49,18,8,24,0.00
2013-5-2,68.4,56.6,41.2,39.8,34.1,26.2,80,46,23,27.63,27.53,17,7,28,0.00
2013-5-3,65.6,54.4,40.5,44.1,39.4,33.4,84,58,41,27.56,27.49,16,8,28,0.00
2013-5-4,63.1,50.4,39.1,41.7,36.2,28.1,84,59,40,27.50,27.39,23,10,30,0.00
2013-5-5,62.9,50.4,41.4,37.7,32.5,23.8,74,54,24,27.42,27.34,22,8,27,0.00
2013-5-6,53.0,47.4,42.2,51.1,42.8,-23.8,96,87,5,27.37,27.29,17,6,28,0.00
2013-5-7,56.6,53.4,49.6,55.5,52.5,48.8,97,97,94,27.29,27.22,17,4,21,0.81
2013-5-8,69.3,54.9,46.9,52.3,47.0,40.7,97,78,36,27.27,27.18,12,4,17,0.75
2013-5-9,72.2,57.6,49.0,57.3,50.2,44.4,97,79,38,27.34,27.20,12,4,25,0.09
2013-5-10,77.5,61.0,50.8,57.6,51.1,0.0,96,73,42,27.34,27.17,13,4,27,0.17
2013-5-11,60.9,56.1,50.2,58.5,52.9,44.6,98,89,70,27.16,27.09,18,7,25,0.64
2013-5-12,49.5,44.1,37.6,44.5,30.7,21.0,95,63,33,27.29,27.10,19,7,28,0.07
2013-5-13,49.0,39.8,32.1,31.1,23.6,17.4,77,55,31,27.40,27.27,18,6,26,0.00
2013-5-14,61.7,43.9,24.4,35.0,28.0,21.6,90,58,29,27.41,27.25,11,3,17,0.00
2013-5-15,83.1,67.5,45.9,57.1,49.8,34.6,76,55,36,27.25,27.11,22,8,29,0.00
2013-5-16,71.1,62.9,55.2,61.8,54.5,10.7,97,77,10,27.31,27.16,20,6,26,0.67
2013-5-17,84.8,66.7,53.8,56.6,49.9,39.9,96,63,21,27.42,27.31,9,2,15,0.00
2013-5-18,74.1,61.2,53.3,58.8,52.9,45.5,97,76,54,27.45,27.40,11,4,18,0.03
2013-5-19,65.6,59.1,55.0,61.1,56.8,54.2,97,92,77,27.44,27.34,12,6,19,0.00
2013-5-20,92.4,71.5,55.9,62.6,59.0,55.0,97,69,33,27.39,27.30,7,2,14,0.00
2013-5-21,85.8,72.5,60.0,65.0,60.7,56.2,97,70,40,27.34,27.22,9,3,14,0.00
2013-5-22,83.3,68.5,59.0,66.2,58.1,53.2,97,72,45,27.27,27.20,22,6,29,0.46
2013-5-23,76.2,64.3,54.9,60.6,55.5,-11.3,97,77,5,27.21,27.12,13,6,30,0.06
2013-5-24,55.3,41.5,35.1,53.9,36.9,27.2,95,85,55,27.47,27.14,17,8,27,0.05
2013-5-25,58.0,43.9,29.2,33.6,30.1,25.9,90,61,35,27.51,27.45,14,6,26,0.00
2013-5-26,64.8,48.6,34.9,35.0,30.0,25.5,75,52,26,27.52,27.46,14,5,23,0.00
2013-5-27,63.4,51.1,33.0,47.0,38.3,30.3,90,64,39,27.54,27.44,6,2,12,0.00
2013-5-28,78.3,64.9,51.3,58.5,53.0,44.5,86,67,46,27.45,27.37,13,4,21,0.01
2013-5-29,82.5,71.3,54.7,59.9,55.3,51.5,92,59,38,27.47,27.40,15,5,25,0.00
2013-5-30,90.3,72.4,55.1,62.3,57.1,53.4,95,64,30,27.54,27.45,6,2,13,0.00
2013-5-31,87.9,71.4,54.5,63.1,57.2,51.3,91,65,34,27.49,27.36,6,2,14,0.00
2013-6-1,88.3,72.9,58.6,61.9,59.4,55.4,93,67,37,27.38,27.25,10,3,18,0.00
2013-6-2,76.4,68.7,61.6,62.7,59.0,56.9,89,72,57,27.25,27.18,19,6,25,0.02
2013-6-3,70.0,60.5,49.6,65.3,55.8,47.2,95,85,64,27.33,27.20,11,3,16,0.04
2013-6-4,77.8,57.6,38.0,48.7,41.8,36.4,94,63,27,27.44,27.32,8,2,15,0.00
2013-6-5,77.1,61.6,45.0,56.6,49.7,41.4,88,67,45,27.44,27.31,14,3,17,0.00
2013-6-6,63.2,60.0,58.3,59.7,57.4,55.4,97,91,79,27.32,27.14,13,6,20,0.22
2013-6-7,66.7,61.3,56.4,65.2,58.2,-17.8,97,93,4,27.15,27.05,9,2,16,0.40
2013-6-8,75.5,60.9,52.4,59.6,54.3,50.7,97,82,50,27.43,27.15,9,3,13,0.00
2013-6-9,77.2,65.0,51.2,63.0,57.7,49.5,95,79,55,27.48,27.39,11,3,16,0.00
2013-6-10,75.1,66.1,60.6,70.0,61.8,56.9,97,87,63,27.40,27.16,10,4,24,0.17
2013-6-11,63.7,60.9,60.1,62.5,58.5,56.2,96,92,86,27.22,27.15,13,7,20,0.03
2013-6-12,82.4,76.4,70.2,67.2,64.8,61.3,89,69,51,27.26,27.15,9,5,20,0.00
2013-6-13,70.8,62.5,56.2,67.9,59.7,-23.6,97,93,3,27.17,26.93,18,8,29,1.23
2013-6-14,72.8,61.3,52.7,53.8,49.9,-16.5,94,71,4,27.35,27.08,10,4,19,0.00
2013-6-15,77.3,64.6,48.7,55.8,48.0,39.3,96,61,27,27.43,27.34,10,2,14,0.00
2013-6-16,73.2,63.6,56.5,62.2,57.3,50.9,94,80,62,27.37,27.26,26,5,30,0.03
2013-6-17,83.2,68.7,61.3,71.0,61.9,58.4,96,81,47,27.32,27.26,10,4,19,0.15
2013-6-18,77.0,65.2,59.2,70.0,60.5,54.8,95,85,55,27.29,27.17,7,1,14,0.11
2013-6-19,81.3,67.1,55.1,60.0,55.8,49.1,93,70,35,27.45,27.25,7,2,13,0.02
2013-6-20,85.6,67.6,50.9,62.2,54.5,49.5,95,68,32,27.54,27.45,5,1,10,0.00
2013-6-21,87.2,70.9,53.3,63.7,57.5,49.8,96,68,29,27.57,27.52,6,2,26,0.00
2013-6-22,89.0,71.4,55.2,65.4,59.4,53.5,95,70,37,27.56,27.45,9,2,13,0.00
2013-6-23,89.4,73.7,56.1,66.1,59.6,54.4,94,66,34,27.52,27.42,7,2,10,0.00
2013-6-24,86.6,73.3,59.1,66.3,61.8,57.3,95,70,45,27.50,27.40,8,3,16,0.01
2013-6-25,84.8,74.0,62.2,65.2,63.2,60.7,96,71,48,27.43,27.30,15,5,21,0.02
2013-6-26,77.0,69.1,63.3,70.0,64.8,61.5,97,87,62,27.31,27.21,10,3,18,0.28
2013-6-27,67.9,64.8,61.7,65.4,63.3,60.2,97,95,84,27.20,27.03,14,3,19,0.99
2013-6-28,75.0,66.1,58.5,67.4,63.3,56.4,97,91,72,27.02,26.92,11,5,20,0.46
2013-6-29,79.3,68.0,58.0,59.6,57.7,56.0,94,72,45,27.07,26.92,11,5,19,0.00
2013-6-30,84.0,69.2,54.7,66.8,59.3,0.0,97,76,42,27.20,27.06,10,2,13,0.32
2013-7-1,79.8,68.5,62.6,70.7,64.1,61.7,97,87,59,27.30,27.17,6,2,14,0.10
2013-7-2,83.7,71.1,63.4,66.6,62.7,0.0,94,77,52,27.44,27.29,8,2,14,0.00
2013-7-3,86.5,72.3,62.8,70.9,64.1,60.4,94,77,50,27.54,27.43,8,3,14,0.13
2013-7-4,87.8,73.7,63.4,69.8,64.6,61.5,94,75,50,27.57,27.48,10,3,23,0.20
2013-7-5,84.8,72.9,65.3,73.9,65.5,61.6,97,79,52,27.53,27.47,9,3,16,0.46
2013-7-6,88.4,74.8,60.6,69.4,65.1,59.7,97,75,49,27.54,27.41,8,2,14,0.00
2013-7-7,86.3,69.9,63.2,70.6,64.2,61.7,97,83,52,27.47,27.37,25,4,36,0.47
2013-7-8,81.4,70.9,61.8,64.4,61.5,57.8,95,74,50,27.47,27.41,10,4,16,0.01
2013-7-9,79.0,70.3,64.6,69.0,65.6,63.1,97,86,68,27.46,27.37,13,5,25,0.40
2013-7-10,84.1,72.8,63.8,69.7,65.3,60.0,97,79,55,27.40,27.24,11,5,33,0.73
2013-7-11,76.6,66.7,60.8,63.0,60.6,58.3,96,82,58,27.32,27.23,8,2,12,0.12
2013-7-12,73.8,63.1,58.0,68.7,59.1,0.0,97,89,60,27.42,27.29,5,1,19,0.30
2013-7-13,78.6,68.2,60.3,69.7,63.7,59.4,97,87,60,27.58,27.41,10,3,14,0.00
2013-7-14,85.3,75.4,65.4,66.5,64.3,61.2,94,70,50,27.64,27.58,14,5,21,0.00
2013-7-15,92.4,77.8,60.7,68.4,60.5,-35.6,94,64,1,27.68,27.60,6,1,10,0.00
2013-7-16,91.7,75.0,63.2,73.5,66.7,61.7,97,79,43,27.66,27.59,8,2,14,0.10
2013-7-17,91.8,75.6,66.5,77.5,69.0,65.6,97,83,48,27.64,27.52,8,2,10,0.00
2013-7-18,94.4,79.5,64.6,72.9,67.9,63.4,96,71,42,27.55,27.42,6,2,10,0.00
2013-7-19,91.8,78.1,68.2,72.0,68.6,65.8,95,75,49,27.43,27.34,12,4,15,0.00
2013-7-20,80.6,71.3,66.1,72.0,66.6,61.5,96,86,67,27.31,27.22,11,5,25,0.17
2013-7-21,86.8,73.2,62.4,66.4,62.4,-32.4,95,73,1,27.33,27.27,9,1,12,0.00
2013-7-22,82.5,68.7,62.1,70.2,65.5,60.9,97,91,58,27.32,27.16,8,1,13,1.25
2013-7-23,65.8,65.6,65.4,64.9,64.7,64.5,97,97,97,27.14,27.11,2,1,5,0.01
2013-7-24,71.4,64.4,51.4,60.0,53.0,49.4,93,68,52,27.29,27.21,9,3,16,0.00
2013-7-25,78.0,63.0,47.5,56.5,50.6,46.1,96,69,37,27.41,27.27,9,1,14,0.00
2013-7-26,83.4,64.4,46.2,62.3,51.3,44.6,95,68,28,27.42,27.36,5,1,10,0.00
2013-7-27,71.7,63.2,54.5,62.0,58.3,52.2,94,84,70,27.36,27.23,10,2,20,0.00
2013-7-28,76.8,66.4,56.3,62.5,55.7,49.4,96,72,41,27.36,27.21,14,4,18,0.12
2013-7-29,72.0,61.1,45.1,53.2,49.5,43.5,95,69,43,27.51,27.36,10,3,15,0.00
2013-7-30,78.8,66.0,51.4,58.8,53.7,49.7,94,68,43,27.54,27.49,8,2,15,0.00
2013-7-31,78.6,63.8,52.4,61.8,51.5,-43.9,94,76,1,27.49,27.31,9,2,13,0.00
2013-8-1,78.2,66.6,58.7,66.1,61.2,57.0,97,84,57,27.31,27.22,10,3,21,0.00
2013-8-2,76.8,66.3,55.4,59.4,54.8,-30.9,96,71,2,27.34,27.25,10,4,18,0.00
2013-8-3,66.8,63.7,60.7,62.7,58.3,-7.7,97,85,5,27.32,27.28,13,3,22,0.17
2013-8-4,73.3,62.4,52.6,61.8,54.1,49.6,97,77,46,27.39,27.31,9,2,17,0.00
2013-8-5,78.1,62.1,46.8,58.3,48.5,0.0,95,67,31,27.43,27.35,6,1,10,0.00
2013-8-6,84.3,66.2,53.0,60.8,54.4,49.2,93,69,38,27.36,27.32,6,2,12,0.00
2013-8-7,83.3,68.3,62.3,70.9,63.8,60.2,97,87,53,27.39,27.34,8,2,12,0.62
2013-8-8,81.6,69.6,61.3,72.1,65.9,60.4,97,89,64,27.37,27.31,7,2,15,0.42
2013-8-9,76.8,69.2,66.8,71.7,67.4,65.9,97,94,73,27.37,27.27,12,4,21,1.58
2013-8-10,82.1,69.0,58.5,69.1,59.7,-24.6,97,78,2,27.45,27.36,7,2,13,0.00
2013-8-11,85.9,69.8,57.5,65.1,59.8,55.8,95,75,39,27.46,27.38,7,1,11,0.00
2013-8-12,84.1,70.3,62.4,64.0,61.5,59.1,94,76,46,27.41,27.29,8,2,15,0.00
2013-8-13,78.2,66.4,60.8,68.4,62.7,58.9,97,89,58,27.28,27.17,10,4,18,1.39
2013-8-16,78.9,68.6,45.8,56.7,51.6,43.9,93,57,37,27.50,27.45,5,2,10,0.00
2013-8-17,70.6,62.0,49.7,55.6,52.2,46.7,90,71,53,27.56,27.50,11,3,18,0.00
2013-8-18,76.1,61.7,54.8,65.4,57.3,53.7,96,86,61,27.55,27.48,6,2,11,0.20
2013-8-19,77.4,65.7,58.3,64.3,60.3,56.6,95,84,58,27.49,27.42,8,2,11,0.02
2013-8-20,83.9,67.1,54.3,63.8,57.0,53.2,96,74,37,27.55,27.45,5,1,10,0.00
2013-8-21,84.4,69.3,54.2,67.0,61.8,52.5,95,80,50,27.54,27.43,7,2,13,0.26
2013-8-22,79.7,68.6,60.4,64.6,61.7,58.3,96,80,58,27.47,27.36,12,4,16,0.00
2013-8-23,79.8,64.4,54.9,68.9,60.0,53.2,97,87,45,27.48,27.34,9,2,14,0.59
2013-8-24,83.3,61.8,49.3,61.8,54.0,48.2,96,79,31,27.64,27.48,5,1,10,0.00
2013-8-25,81.4,67.2,49.1,58.8,53.8,47.2,94,66,40,27.70,27.59,4,1,11,0.00
2013-8-26,83.2,68.8,54.2,61.1,58.0,52.4,95,71,46,27.61,27.41,10,4,18,0.00
2013-8-27,75.6,69.8,66.5,67.7,62.5,-19.4,91,81,2,27.41,27.33,9,5,17,0.05
2013-8-28,73.8,69.0,65.7,70.7,67.0,64.6,97,94,83,27.34,27.21,11,4,18,1.82
2013-8-29,85.6,71.3,61.7,73.3,65.0,60.2,97,83,47,27.40,27.26,4,1,8,0.00
2013-8-30,86.5,72.5,55.2,69.6,61.3,54.1,96,72,41,27.39,27.25,9,2,11,0.00
2013-8-31,83.0,72.1,63.5,67.4,63.9,62.0,96,77,54,27.26,27.20,10,3,16,0.00
2013-9-1,79.8,69.0,62.7,65.6,61.2,0.0,95,79,56,27.25,27.17,10,1,14,0.00
2013-9-2,81.8,69.8,61.7,66.0,62.1,-11.8,96,80,4,27.22,27.15,12,4,20,0.00
2013-9-3,73.9,63.8,55.3,60.3,55.9,51.9,95,77,49,27.35,27.19,11,4,18,0.00
2013-9-4,78.8,62.1,48.3,57.3,51.8,46.9,96,73,38,27.45,27.34,10,3,12,0.00
2013-9-5,74.9,62.2,50.6,57.6,52.9,45.3,90,73,49,27.50,27.41,12,4,20,0.00
2013-9-6,80.1,60.2,38.3,50.6,45.1,36.7,94,64,29,27.55,27.45,4,1,8,0.00
2013-9-7,79.6,61.5,43.4,56.0,47.9,41.4,94,65,33,27.45,27.32,7,2,11,0.00
2013-9-8,82.6,68.2,57.6,63.1,57.6,51.2,94,70,52,27.40,27.28,12,3,15,0.00
2013-9-9,79.9,64.3,55.9,63.6,55.9,0.0,95,76,56,27.47,27.40,5,1,11,0.00
2013-9-10,86.1,74.9,63.8,69.2,65.8,60.8,94,75,56,27.54,27.44,12,4,17,0.00
2013-9-11,88.5,75.1,65.9,70.6,67.2,64.6,97,78,51,27.55,27.42,10,2,14,0.00
2013-9-12,80.9,68.8,63.1,66.8,62.9,5.4,94,84,7,27.42,27.15,15,4,20,0.12
2013-9-13,68.1,55.2,44.4,59.2,50.6,41.5,96,85,45,27.30,27.14,10,4,20,0.11
2013-9-14,64.3,49.2,39.4,43.0,40.9,37.3,92,76,43,27.46,27.29,9,2,13,0.00
2013-9-15,71.5,54.0,36.0,53.9,45.4,34.2,94,76,49,27.48,27.40,10,2,19,0.00
2013-9-16,60.2,54.9,50.9,55.7,52.6,48.7,96,92,82,27.49,27.35,8,3,15,0.08
2013-9-17,65.3,54.7,45.1,47.6,43.7,35.9,87,68,46,27.67,27.56,6,2,12,0.00
2013-9-18,69.3,52.7,36.9,50.9,43.6,34.2,91,72,48,27.57,27.45,5,1,9,0.00
2013-9-19,75.2,61.2,51.8,59.4,51.7,0.0,95,75,56,27.46,27.38,5,1,9,0.00
2013-9-20,81.9,65.3,50.3,63.6,58.9,48.9,95,81,54,27.39,27.24,5,2,11,0.03
2013-9-21,70.5,59.8,50.6,62.5,57.3,49.5,97,92,74,27.23,27.03,12,3,17,0.65
2013-9-22,61.4,52.9,46.3,54.2,47.7,41.7,97,84,51,27.28,27.10,13,3,15,0.00
2013-9-23,58.4,48.3,35.0,44.1,39.8,32.9,94,74,52,27.39,27.28,8,2,12,0.00
2013-9-24,77.3,53.8,33.0,52.3,43.6,31.4,94,73,39,27.37,27.28,6,1,10,0.00
2013-9-25,75.0,53.6,40.4,53.3,45.2,38.5,94,76,41,27.29,27.21,7,2,11,0.00
2013-9-26,77.5,57.0,42.0,51.3,43.4,0.0,94,67,30,27.38,27.25,9,1,11,0.00
2013-9-27,75.6,56.1,41.4,52.3,45.6,39.2,93,71,39,27.50,27.38,7,2,12,0.00
2013-9-28,65.4,54.7,46.6,52.5,48.2,45.0,96,80,53,27.57,27.48,9,3,14,0.00
2013-9-29,75.1,54.9,44.6,51.6,46.6,41.6,92,76,44,27.47,27.35,9,2,12,0.00
2013-9-30,69.1,56.5,42.4,55.9,49.2,-17.8,94,80,3,27.37,27.32,6,1,8,0.00
2013-10-1,74.7,61.3,50.7,57.0,53.8,48.5,94,78,46,27.42,27.35,10,2,17,0.00
2013-10-2,77.3,63.3,54.9,59.0,55.7,53.2,94,78,49,27.44,27.39,10,3,15,0.00
2013-10-3,82.3,63.6,52.5,62.2,56.4,51.0,96,80,45,27.46,27.38,4,1,10,0.00
2013-10-4,81.1,68.4,60.2,62.7,59.9,57.6,94,76,49,27.46,27.39,9,2,16,0.00
2013-10-5,81.5,68.2,59.1,63.7,59.8,56.7,94,77,49,27.45,27.36,7,2,11,0.00
2013-10-6,82.2,68.3,57.3,61.4,56.3,52.9,94,69,37,27.36,27.18,12,4,20,0.00
2013-10-7,65.7,54.6,42.6,58.1,48.7,38.1,95,82,57,27.39,27.07,15,5,25,0.35
2013-10-8,71.3,52.4,39.4,45.8,40.1,37.1,93,67,32,27.55,27.39,7,2,13,0.00
2013-10-9,60.1,50.0,44.3,42.9,39.4,36.6,81,68,49,27.58,27.51,16,4,21,0.00
2013-10-10,62.9,51.1,46.1,52.6,45.1,37.7,96,81,53,27.50,27.36,6,1,11,0.15
2013-10-11,58.5,52.9,49.8,57.4,51.8,48.6,97,96,95,27.35,27.31,7,2,13,0.08
2013-10-12,63.5,57.4,53.9,62.0,54.8,-44.4,97,95,1,27.48,27.33,7,2,14,0.01
2013-10-13,60.8,54.6,52.3,54.1,52.3,51.0,97,92,76,27.56,27.46,8,3,14,0.01
2013-10-14,72.2,56.0,51.6,59.8,53.1,50.5,97,91,63,27.58,27.50,4,2,10,0.00
2013-10-15,67.5,57.6,51.8,53.6,51.1,48.0,96,80,60,27.52,27.33,8,3,17,0.00
2013-10-16,67.6,59.5,45.9,55.7,51.2,44.0,94,75,53,27.33,27.22,9,3,17,0.00
2013-10-17,64.0,55.9,44.1,61.6,54.5,43.0,97,95,87,27.22,27.01,15,4,24,0.34
2013-10-18,62.2,46.2,35.6,43.2,38.4,33.2,96,77,38,27.30,27.17,14,5,25,0.00
2013-10-19,55.5,43.0,31.2,45.1,38.4,29.4,94,85,58,27.27,27.07,14,4,26,0.09
2013-10-20,56.8,43.7,35.7,36.7,32.5,28.7,92,68,34,27.34,27.18,12,4,21,0.00
2013-10-21,67.1,48.2,30.5,42.2,32.1,0.0,89,58,27,27.35,27.19,10,2,18,0.00
2013-10-22,51.5,43.9,33.3,43.2,36.3,28.1,94,76,44,27.19,27.11,13,5,20,0.08
2013-10-23,40.4,34.6,32.1,37.7,32.2,28.6,94,91,82,27.16,26.98,10,2,14,0.29
2013-10-24,38.4,32.1,30.1,34.6,29.1,-18.1,94,90,9,27.36,27.15,15,6,25,0.12
2013-10-25,40.8,31.2,27.6,34.1,27.7,25.1,91,87,65,27.53,27.35,10,4,16,0.00
2013-10-26,51.0,36.3,26.9,25.8,23.4,18.6,85,62,31,27.48,27.17,20,7,25,0.00
2013-10-27,54.4,41.8,29.5,32.5,28.8,25.5,87,62,35,27.36,27.21,14,5,20,0.00
2013-10-28,65.9,43.7,28.3,38.7,30.3,25.3,93,65,27,27.53,27.35,6,1,12,0.00
2013-10-29,66.1,45.0,29.1,39.8,31.0,26.0,89,63,27,27.59,27.52,6,1,13,0.00
2013-10-30,60.9,50.9,38.8,53.4,45.4,32.5,95,82,69,27.52,27.42,8,2,10,0.00
2013-10-31,65.1,58.9,53.6,53.9,52.0,48.2,95,79,56,27.42,26.94,14,5,25,0.02
2013-11-1,65.8,54.9,46.4,58.1,45.3,38.5,97,72,45,27.02,26.81,21,7,44,0.20
2013-11-2,49.4,45.0,38.4,42.4,38.4,33.7,95,78,60,27.18,26.96,16,6,23,0.02
2013-11-3,53.5,38.0,24.7,37.3,28.8,18.5,95,74,26,27.63,27.19,12,4,19,0.00
2013-11-4,40.5,30.6,21.5,21.8,18.8,16.4,86,63,44,27.73,27.63,11,3,18,0.00
2013-11-5,51.8,38.2,29.5,29.2,24.1,19.4,84,58,39,27.73,27.60,5,2,13,0.00
2013-11-6,69.7,51.0,30.9,45.9,40.3,28.0,94,70,40,27.60,27.24,13,5,24,0.00
2013-11-7,58.8,41.4,31.5,50.7,36.8,21.0,96,84,61,27.34,27.18,12,6,23,0.35
2013-11-8,41.9,31.8,22.3,25.4,21.6,18.3,85,67,40,27.48,27.30,14,5,25,0.00
2013-11-9,58.6,41.4,21.8,26.8,18.3,-30.2,89,47,3,27.48,27.25,18,6,26,0.00
2013-11-10,45.0,39.5,30.5,31.0,25.8,21.8,75,58,41,27.47,27.23,18,9,39,0.00
2013-11-11,50.9,38.4,23.8,35.3,21.8,8.9,87,58,20,27.48,27.26,13,5,24,0.06
2013-11-12,38.5,25.8,21.1,35.3,20.8,14.7,93,82,64,27.59,27.25,15,6,20,0.03
2013-11-13,36.1,24.3,18.6,25.1,16.2,-29.4,85,73,9,27.64,27.53,13,6,20,0.02
2013-11-14,52.9,35.1,23.8,16.0,12.7,10.1,68,42,21,27.54,27.42,16,6,24,0.02
2013-11-15,50.8,43.6,38.1,37.7,20.4,10.3,90,43,24,27.47,27.40,10,4,21,0.06
2013-11-16,60.0,47.7,35.0,45.2,41.3,33.2,93,79,58,27.49,27.36,9,2,20,0.01
2013-11-17,59.7,54.2,43.1,56.1,49.1,40.4,96,83,68,27.36,27.01,21,7,37,0.17
2013-11-18,56.9,45.8,33.8,46.5,30.7,22.5,96,58,31,27.22,27.02,21,10,29,0.00
2013-11-19,33.2,28.2,20.6,24.4,20.4,16.1,84,72,63,27.54,27.23,13,4,27,0.00
2013-11-20,42.0,29.4,20.4,18.6,15.4,11.0,85,58,31,27.65,27.54,16,8,25,0.00
2013-11-21,52.6,39.2,26.6,35.2,28.9,16.3,80,67,48,27.64,27.51,7,1,17,0.00
2013-11-22,51.4,46.8,33.4,50.3,44.7,32.1,96,93,78,27.49,27.32,14,4,23,0.38
2013-11-23,34.2,26.3,13.6,31.2,21.5,8.0,94,82,62,27.42,27.29,14,6,29,0.00
2013-11-24,22.5,12.7,6.5,8.0,2.4,-52.7,81,66,3,27.61,27.41,13,6,28,0.00
2013-11-25,44.5,26.5,6.9,20.9,5.4,-0.7,75,44,18,27.60,27.41,11,4,19,0.00
2013-11-26,36.0,32.6,29.3,34.4,28.9,-34.1,95,89,4,27.40,27.02,10,3,19,0.88
2013-11-27,33.6,22.7,15.4,32.3,19.5,9.5,95,88,76,27.26,27.02,19,8,31,0.01
2013-11-28,25.0,19.6,13.8,17.8,13.5,7.9,83,77,69,27.56,27.27,14,5,26,0.00
2013-11-29,39.7,25.2,17.3,34.0,18.6,13.9,87,76,59,27.78,27.56,9,3,15,0.00
2013-11-30,29.4,22.4,17.3,21.6,17.1,13.5,86,80,71,27.75,27.44,7,2,16,0.00
2013-12-1,47.6,36.3,22.2,31.9,24.7,18.1,84,64,38,27.43,27.20,12,4,18,0.00
2013-12-2,54.1,40.5,32.2,35.8,31.5,28.3,89,71,50,27.19,27.07,5,1,9,0.00
2013-12-3,61.5,41.0,31.6,38.1,31.4,-43.9,90,73,2,27.19,27.08,6,1,10,0.00
2013-12-4,61.6,46.1,35.7,45.1,38.6,31.3,89,76,54,27.26,27.18,9,2,17,0.00
2013-12-5,64.0,53.8,41.4,56.3,50.0,38.4,97,87,69,27.24,27.19,12,3,19,0.61
2013-12-6,42.7,33.5,28.3,41.6,32.2,26.8,96,95,94,27.38,27.23,8,2,19,0.96
2013-12-7,27.6,22.6,16.2,26.1,20.0,12.8,94,90,86,27.66,27.38,0,0,0,0.00
2013-12-8,25.6,19.7,15.7,23.3,16.5,12.0,91,87,85,27.65,27.30,0,0,0,0.00
2013-12-9,38.3,31.5,26.2,37.2,29.5,24.2,96,92,84,27.31,27.22,14,6,24,0.28
2013-12-10,27.4,22.8,18.3,24.9,17.3,10.1,91,79,67,27.38,27.15,18,8,33,0.00
2013-12-11,35.0,21.9,15.6,20.7,11.2,-26.6,84,65,11,27.48,27.39,15,7,22,0.01
2013-12-12,24.5,16.1,11.9,14.5,2.9,-22.9,83,58,12,27.52,27.36,17,8,28,0.00
2013-12-13,37.0,24.7,15.5,17.6,8.5,0.1,58,50,35,27.44,27.34,23,8,30,0.00
2013-12-14,32.0,29.6,26.8,30.5,24.7,12.3,94,83,47,27.41,27.01,24,8,30,0.00
2013-12-15,36.7,26.7,21.3,35.7,22.8,-26.4,96,87,10,27.14,27.01,20,10,29,0.14
2013-12-16,28.6,23.2,19.0,26.6,20.0,15.8,92,87,83,30.04,27.14,12,5,22,0.00
2013-12-17,33.6,30.0,23.8,32.1,28.2,21.0,95,93,88,29.97,29.89,14,5,19,0.01
2013-12-18,26.4,23.3,19.9,21.5,19.1,16.1,89,84,76,30.12,29.96,18,8,23,0.00
2013-12-19,55.1,42.2,26.3,34.7,25.5,18.5,86,54,34,30.12,30.06,21,6,33,0.03
2013-12-20,54.8,50.1,44.6,49.2,36.3,19.1,94,61,33,30.08,29.97,14,7,21,0.01
2013-12-21,68.5,59.0,53.6,54.4,50.8,47.8,90,75,56,30.00,29.82,12,5,27,0.07
2013-12-22,66.6,55.8,52.9,55.4,49.9,46.5,96,81,63,30.02,29.77,30,8,33,0.22
2013-12-23,53.5,37.0,23.8,48.3,35.0,20.2,96,92,78,30.20,29.98,10,5,22,0.19
2013-12-24,25.8,18.3,7.3,20.1,11.0,-38.5,86,75,5,30.35,30.13,15,5,22,0.00
2013-12-25,34.3,19.6,5.8,24.1,10.0,0.7,80,67,51,30.35,30.14,12,3,16,0.00
2013-12-26,36.7,27.9,22.9,23.8,16.6,11.6,89,63,43,30.27,30.10,18,7,27,0.00
2013-12-27,43.3,31.7,22.0,16.9,13.5,-29.1,67,49,5,30.32,30.26,20,6,24,0.00
2013-12-28,52.1,40.7,33.4,24.1,19.0,15.3,49,42,32,30.26,30.07,13,6,23,0.00
2013-12-29,43.5,38.3,34.2,40.1,34.3,14.8,96,88,31,30.07,29.65,15,7,27,0.91
2013-12-30,34.5,24.1,19.0,33.2,21.6,15.8,95,90,87,30.09,29.85,12,5,27,0.02
2013-12-31,23.1,21.1,18.5,20.0,16.6,-18.9,89,83,15,30.22,30.02,21,7,26,0.00
2014-1-1,46.9,30.1,20.5,33.8,20.3,0.0,84,68,35,30.26,30.02,12,3,17,0.01
2014-1-2,36.5,24.5,7.7,24.0,18.6,2.0,87,79,54,30.02,29.63,13,3,24,0.00